Terminal Aerodrome Forecast
Issued by NWS

Home | Current Version | Previous Version | Text Only | Print | Product List | Glossary On
Versions: 1 2 3 4 5 6 7 8 9 10 11 12 13 14
000
FTUS46 KSEW 161900 AAA
TAFBFI
TAF AMD
KBFI 161919Z 1619/1718 17013KT P6SM -RA SCT015 BKN030 OVC060
     FM170000 19010KT P6SM -RA FEW022 BKN040 OVC060
     FM170600 16007KT 6SM -RA BR FEW012 OVC022=

USA.gov is the U.S. government's official web portal to all federal, state and local government web resources and services.